Time;durP1;ratioP1;P1;durP2;ratioP2;P2;SDS_P1;SDS_P2;PMS_P1;PMS_P2;Temp;Humidity;BMP_temperature;BMP_pressure;BME280_temperature;BME280_humidity;BME280_pressure;Samples;Min_cycle;Max_cycle;Signal;HPM_P1;HPM_P2
2022/03/31 00:02:32;;;;;;;;;;;;;;;1.02;84.21;98909.16;2113017;83;20143;-78
2022/03/31 00:05:33;;;;;;;;;;;;;;;1.03;84.13;98907.70;2107078;83;20123;-78
2022/03/31 00:08:34;;;;;;;;;;;;;;;1.05;84.04;98908.89;2114162;83;20164;-80
2022/03/31 00:11:35;;;;;;;;;;;;;;;1.06;84.08;98905.30;2106677;83;20176;-79
2022/03/31 00:14:36;;;;;;;;;;;;;;;1.07;84.53;98903.87;2112623;83;20134;-79
2022/03/31 00:17:37;;;;;;;;;;;;;;;1.07;84.32;98899.95;2108715;83;20128;-78
2022/03/31 00:20:38;;;;;;;;;;;;;;;1.07;84.16;98892.58;2106424;83;20310;-77
2022/03/31 00:23:39;;;;;;;;;;;;;;;1.07;84.15;98894.73;2112725;83;20499;-79
2022/03/31 00:26:39;;;;;;;;;;;;;;;1.07;84.62;98895.19;2113675;83;20176;-78
2022/03/31 00:29:40;;;;;;;;;;;;;;;1.05;84.14;98890.61;2110065;83;20444;-78
2022/03/31 00:32:42;;;;;;;;;;;;;;;1.02;84.53;98886.47;2113546;83;20160;-78
2022/03/31 00:35:43;;;;;;;;;;;;;;;1.03;84.25;98901.66;2112490;83;20459;-80
2022/03/31 00:39:28;;;;;;;;;;;;;;;1.03;84.20;98897.25;2110404;83;20131;-80
2022/03/31 00:41:47;;;;;;;;;;;;;;;1.03;84.27;98892.03;2106256;83;20138;-78
2022/03/31 00:44:49;;;;;;;;;;;;;;;1.04;84.43;98884.56;2110415;83;20394;-79
2022/03/31 00:47:50;;;;;;;;;;;;;;;1.06;84.44;98893.55;2109226;83;20157;-80
2022/03/31 00:50:52;;;;;;;;;;;;;;;1.08;84.96;98900.30;2115195;83;20165;-79
2022/03/31 00:53:53;;;;;;;;;;;;;;;1.10;84.86;98894.45;2116394;83;20305;-79
2022/03/31 00:56:56;;;;;;;;;;;;;;;1.13;84.92;98893.36;2109743;83;20166;-79
2022/03/31 00:59:57;;;;;;;;;;;;;;;1.16;84.72;98893.58;2108540;83;20136;-78
2022/03/31 01:02:58;;;;;;;;;;;;;;;1.21;84.90;98899.19;2109791;83;20502;-80
2022/03/31 01:05:59;;;;;;;;;;;;;;;1.24;84.90;98895.84;2108605;83;20166;-77
2022/03/31 01:09:01;;;;;;;;;;;;;;;1.28;85.19;98895.91;2114405;83;20163;-79
2022/03/31 01:12:03;;;;;;;;;;;;;;;1.26;85.16;98896.52;2107268;83;20123;-79
2022/03/31 01:15:09;;;;;;;;;;;;;;;1.28;84.95;98893.29;2108412;83;20134;-81
2022/03/31 01:18:10;;;;;;;;;;;;;;;1.29;85.04;98892.80;2110344;83;20462;-78
2022/03/31 01:21:11;;;;;;;;;;;;;;;1.29;85.15;98884.96;2112020;83;20136;-78
2022/03/31 01:24:14;;;;;;;;;;;;;;;1.29;85.48;98892.80;2108193;83;20235;-79
2022/03/31 01:27:15;;;;;;;;;;;;;;;1.30;85.20;98887.94;2106445;83;20451;-80
2022/03/31 01:30:19;;;;;;;;;;;;;;;1.31;85.10;98886.48;2111018;83;20144;-80
2022/03/31 01:33:20;;;;;;;;;;;;;;;1.33;85.29;98887.66;2109059;83;20665;-80
2022/03/31 01:36:21;;;;;;;;;;;;;;;1.32;85.23;98882.07;2108527;83;20262;-78
2022/03/31 01:39:22;;;;;;;;;;;;;;;1.32;85.10;98877.69;2110723;83;20176;-78
2022/03/31 01:42:23;;;;;;;;;;;;;;;1.33;85.07;98878.02;2111551;83;20135;-79
2022/03/31 01:45:24;;;;;;;;;;;;;;;1.36;85.23;98880.03;2104052;83;20914;-79
2022/03/31 01:48:25;;;;;;;;;;;;;;;1.36;85.51;98872.19;2108412;83;20162;-80
2022/03/31 01:51:26;;;;;;;;;;;;;;;1.32;85.48;98869.85;2109657;83;20201;-79
2022/03/31 01:54:26;;;;;;;;;;;;;;;1.29;85.70;98875.33;2108893;83;20154;-78
2022/03/31 01:57:27;;;;;;;;;;;;;;;1.27;85.45;98878.58;2109128;83;20207;-78
2022/03/31 02:00:28;;;;;;;;;;;;;;;1.26;85.33;98876.91;2115124;83;20192;-78
2022/03/31 02:03:30;;;;;;;;;;;;;;;1.26;85.43;98875.61;2111658;83;20438;-79
2022/03/31 02:06:30;;;;;;;;;;;;;;;1.27;85.23;98872.53;2116587;83;20395;-78
2022/03/31 02:09:31;;;;;;;;;;;;;;;1.27;85.23;98875.97;2113547;83;20198;-79
2022/03/31 02:12:33;;;;;;;;;;;;;;;1.24;85.30;98878.86;2109987;83;20236;-79
2022/03/31 02:15:34;;;;;;;;;;;;;;;1.22;85.38;98883.39;2112249;83;20156;-80
2022/03/31 02:18:36;;;;;;;;;;;;;;;1.21;85.27;98890.05;2104673;83;20132;-81
2022/03/31 02:21:37;;;;;;;;;;;;;;;1.21;85.15;98886.98;2110622;83;20189;-80
2022/03/31 02:24:39;;;;;;;;;;;;;;;1.21;85.01;98894.81;2111277;83;20166;-79
2022/03/31 02:27:40;;;;;;;;;;;;;;;1.21;85.09;98889.59;2112701;83;20160;-79
2022/03/31 02:30:41;;;;;;;;;;;;;;;1.21;84.89;98888.28;2112113;83;20129;-80
2022/03/31 02:33:42;;;;;;;;;;;;;;;1.20;84.89;98887.92;2108253;83;20184;-79
2022/03/31 02:36:44;;;;;;;;;;;;;;;1.20;84.92;98889.71;2112030;83;20168;-80
2022/03/31 02:39:45;;;;;;;;;;;;;;;1.17;85.02;98892.12;2112390;83;20127;-80
2022/03/31 02:42:46;;;;;;;;;;;;;;;1.13;85.09;98894.67;2111018;83;20215;-79
2022/03/31 02:45:47;;;;;;;;;;;;;;;1.07;85.27;98888.20;2111369;83;20506;-81
2022/03/31 02:48:48;;;;;;;;;;;;;;;1.00;85.32;98879.73;2115450;83;20150;-79
2022/03/31 02:51:48;;;;;;;;;;;;;;;0.93;85.14;98887.30;2114230;83;20134;-80
2022/03/31 02:58:09;;;;;;;;;;;;;;;0.85;85.37;98895.80;2108927;83;20177;-80
2022/03/31 03:01:10;;;;;;;;;;;;;;;0.82;85.04;98886.92;2106815;83;20127;-78
2022/03/31 03:04:11;;;;;;;;;;;;;;;0.79;85.20;98880.67;2116860;83;20140;-79
2022/03/31 03:07:12;;;;;;;;;;;;;;;0.76;85.14;98879.64;2112167;83;20467;-81
2022/03/31 03:10:13;;;;;;;;;;;;;;;0.72;84.99;98880.84;2111610;83;20152;-81
2022/03/31 03:13:15;;;;;;;;;;;;;;;0.72;85.14;98882.64;2113054;83;20181;-79
2022/03/31 03:16:16;;;;;;;;;;;;;;;0.70;85.05;98877.54;2109140;83;20481;-79
2022/03/31 03:19:17;;;;;;;;;;;;;;;0.70;85.00;98877.54;2109004;83;20176;-79
2022/03/31 03:22:18;;;;;;;;;;;;;;;0.70;85.00;98874.11;2119503;83;20129;-80
2022/03/31 03:25:20;;;;;;;;;;;;;;;0.68;84.99;98872.95;2102165;83;20136;-80
2022/03/31 03:28:21;;;;;;;;;;;;;;;0.70;85.12;98876.23;2110663;83;20129;-80
2022/03/31 03:31:22;;;;;;;;;;;;;;;0.70;84.87;98877.54;2115270;83;20128;-80
2022/03/31 03:34:22;;;;;;;;;;;;;;;0.70;84.77;98876.23;2109101;83;20137;-80
2022/03/31 03:37:23;;;;;;;;;;;;;;;0.72;84.66;98877.42;2109481;83;20140;-80
2022/03/31 03:40:25;;;;;;;;;;;;;;;0.74;84.69;98879.42;2110453;83;20480;-79
2022/03/31 03:43:26;;;;;;;;;;;;;;;0.74;84.83;98873.72;2109294;83;20510;-80
2022/03/31 03:46:27;;;;;;;;;;;;;;;0.74;84.63;98874.20;2107624;83;20446;-81
2022/03/31 03:49:28;;;;;;;;;;;;;;;0.74;84.78;98872.41;2111316;83;20140;-79
2022/03/31 03:52:30;;;;;;;;;;;;;;;0.72;84.70;98881.34;2114477;83;20449;-79
2022/03/31 03:55:32;;;;;;;;;;;;;;;0.70;84.65;98878.84;2109734;83;20929;-79
2022/03/31 03:58:34;;;;;;;;;;;;;;;0.71;84.81;98881.82;2115691;83;20180;-79
2022/03/31 04:01:35;;;;;;;;;;;;;;;0.70;84.74;98877.54;2108789;83;20501;-80
2022/03/31 04:04:36;;;;;;;;;;;;;;;0.70;84.66;98882.76;2110226;83;20197;-79
2022/03/31 04:07:37;;;;;;;;;;;;;;;0.70;84.79;98881.45;2112007;83;20438;-81
2022/03/31 04:10:38;;;;;;;;;;;;;;;0.70;85.06;98887.98;2109266;83;20128;-79
2022/03/31 04:13:39;;;;;;;;;;;;;;;0.69;84.92;98888.95;2111272;83;20184;-81
2022/03/31 04:16:40;;;;;;;;;;;;;;;0.69;84.98;98887.65;2108085;83;20139;-80
2022/03/31 04:19:42;;;;;;;;;;;;;;;0.67;85.12;98886.95;2109136;83;20213;-78
2022/03/31 04:22:43;;;;;;;;;;;;;;;0.66;85.39;98899.67;2109050;83;20136;-79
2022/03/31 04:25:45;;;;;;;;;;;;;;;0.64;85.43;98896.35;2109147;83;20386;-79
2022/03/31 04:28:46;;;;;;;;;;;;;;;0.63;85.36;98884.27;2111220;83;20140;-80
2022/03/31 04:31:47;;;;;;;;;;;;;;;0.60;85.50;98884.05;2109061;83;20604;-81
2022/03/31 04:34:48;;;;;;;;;;;;;;;0.59;85.31;98890.70;2111600;83;20163;-78
2022/03/31 04:37:50;;;;;;;;;;;;;;;0.58;85.34;98885.97;2111419;83;20139;-78
2022/03/31 04:40:51;;;;;;;;;;;;;;;0.57;85.13;98890.84;2110525;83;20163;-80
2022/03/31 04:43:53;;;;;;;;;;;;;;;0.58;85.17;98889.06;2113081;83;20225;-81
2022/03/31 04:46:54;;;;;;;;;;;;;;;0.60;85.33;98896.29;2109026;83;20503;-81
2022/03/31 04:49:55;;;;;;;;;;;;;;;0.58;85.54;98889.06;2114850;83;20119;-80
2022/03/31 04:52:56;;;;;;;;;;;;;;;0.57;85.54;98904.39;2108921;83;20160;-80
2022/03/31 04:55:57;;;;;;;;;;;;;;;0.59;85.58;98901.14;2109885;83;20152;-79
2022/03/31 04:58:58;;;;;;;;;;;;;;;0.59;85.54;98902.45;2112904;83;20125;-79
2022/03/31 05:01:59;;;;;;;;;;;;;;;0.57;85.73;98893.95;2107128;83;20143;-78
2022/03/31 05:05:00;;;;;;;;;;;;;;;0.53;85.57;98895.97;2114468;83;20171;-80
2022/03/31 05:08:02;;;;;;;;;;;;;;;0.51;85.42;98903.13;2107548;83;20113;-82
2022/03/31 05:11:03;;;;;;;;;;;;;;;0.50;85.71;98907.16;2110675;83;20422;-76
2022/03/31 05:14:05;;;;;;;;;;;;;;;0.50;85.79;98912.39;2085111;84;20183;-79
2022/03/31 05:17:06;;;;;;;;;;;;;;;0.50;85.76;98914.52;2080173;84;20220;-77
2022/03/31 05:20:10;;;;;;;;;;;;;;;0.51;85.71;98922.70;2082444;84;20189;-79
2022/03/31 05:23:12;;;;;;;;;;;;;;;0.50;85.86;98922.83;2082736;84;20158;-79
2022/03/31 05:26:13;;;;;;;;;;;;;;;0.50;85.72;98926.74;2088433;84;20141;-80
2022/03/31 05:29:13;;;;;;;;;;;;;;;0.49;85.80;98918.58;2081860;84;20196;-80
2022/03/31 05:32:15;;;;;;;;;;;;;;;0.50;85.82;98922.83;2082399;84;20196;-78
2022/03/31 05:35:16;;;;;;;;;;;;;;;0.49;85.84;98916.78;2084411;84;20532;-79
2022/03/31 05:38:17;;;;;;;;;;;;;;;0.46;85.88;98924.06;2084055;84;20122;-82
2022/03/31 05:41:18;;;;;;;;;;;;;;;0.42;86.02;98916.50;2081100;84;20150;-81
2022/03/31 05:44:19;;;;;;;;;;;;;;;0.41;85.91;98930.48;2081145;84;20135;-80
2022/03/31 05:47:19;;;;;;;;;;;;;;;0.41;86.08;98923.14;2084359;84;20139;-80
2022/03/31 05:50:20;;;;;;;;;;;;;;;0.39;86.09;98929.78;2082376;84;20167;-81
2022/03/31 05:53:22;;;;;;;;;;;;;;;0.37;86.16;98925.67;2085694;84;20182;-80
2022/03/31 05:56:22;;;;;;;;;;;;;;;0.34;86.23;98927.22;2082979;84;20240;-80
2022/03/31 05:59:23;;;;;;;;;;;;;;;0.30;86.41;98923.23;2079764;84;20165;-79
2022/03/31 06:02:25;;;;;;;;;;;;;;;0.26;86.47;98929.20;2080231;84;20141;-80
2022/03/31 06:05:26;;;;;;;;;;;;;;;0.26;86.53;98927.07;2078179;84;20178;-77
2022/03/31 06:08:27;;;;;;;;;;;;;;;0.29;86.33;98932.02;2079880;84;20203;-80
2022/03/31 06:11:28;;;;;;;;;;;;;;;0.29;86.40;98933.33;2085997;83;20522;-78
2022/03/31 06:14:29;;;;;;;;;;;;;;;0.29;86.52;98934.63;2105540;83;20159;-79
2022/03/31 06:17:30;;;;;;;;;;;;;;;0.28;86.39;98930.35;2107964;83;20116;-80
2022/03/31 06:20:31;;;;;;;;;;;;;;;0.27;86.56;98928.71;2107933;83;20474;-79
2022/03/31 06:23:32;;;;;;;;;;;;;;;0.22;86.49;98922.56;2107223;83;20206;-79
2022/03/31 06:26:33;;;;;;;;;;;;;;;0.19;86.45;98943.70;2111578;83;20583;-79
2022/03/31 06:29:35;;;;;;;;;;;;;;;0.19;86.47;98948.92;2103206;83;20186;-78
2022/03/31 06:32:37;;;;;;;;;;;;;;;0.17;86.58;98949.52;2113004;83;20120;-78
2022/03/31 06:35:38;;;;;;;;;;;;;;;0.17;86.80;98956.89;2108161;83;20156;-78
2022/03/31 06:38:39;;;;;;;;;;;;;;;0.18;86.53;98956.41;2114023;83;20211;-78
2022/03/31 06:41:42;;;;;;;;;;;;;;;0.15;86.30;98950.14;2115375;83;20160;-77
2022/03/31 06:44:43;;;;;;;;;;;;;;;0.19;86.48;98950.22;2111318;83;20438;-79
2022/03/31 06:47:44;;;;;;;;;;;;;;;0.22;86.37;98947.35;2111210;83;20178;-79
2022/03/31 06:50:46;;;;;;;;;;;;;;;0.24;86.38;98944.14;2105108;83;20148;-81
2022/03/31 06:53:47;;;;;;;;;;;;;;;0.25;86.13;98954.91;2106680;83;20203;-78
2022/03/31 06:56:49;;;;;;;;;;;;;;;0.22;85.94;98952.09;2109750;83;20245;-79
2022/03/31 06:59:50;;;;;;;;;;;;;;;0.24;86.01;98957.67;2113282;83;20176;-80
2022/03/31 07:02:51;;;;;;;;;;;;;;;0.23;85.85;98950.33;2105930;83;20611;-80
2022/03/31 07:05:52;;;;;;;;;;;;;;;0.26;85.86;98953.98;2108921;83;20224;-77
2022/03/31 07:08:53;;;;;;;;;;;;;;;0.25;85.68;98949.70;2110539;83;20105;-78
2022/03/31 07:11:55;;;;;;;;;;;;;;;0.27;85.65;98962.14;2111802;83;20527;-80
2022/03/31 07:14:56;;;;;;;;;;;;;;;0.25;85.46;98954.91;2110106;83;20143;-79
2022/03/31 07:17:58;;;;;;;;;;;;;;;0.23;85.22;98950.33;2104605;83;20186;-78
2022/03/31 07:20:59;;;;;;;;;;;;;;;0.22;85.42;98935.13;2111802;83;20138;-80
2022/03/31 07:24:01;;;;;;;;;;;;;;;0.27;85.48;98933.44;2108843;83;20618;-79
2022/03/31 07:27:03;;;;;;;;;;;;;;;0.34;85.61;98933.28;2113320;83;20187;-80
2022/03/31 07:30:05;;;;;;;;;;;;;;;0.35;85.34;98931.02;2105400;83;20155;-80
2022/03/31 07:33:06;;;;;;;;;;;;;;;0.41;85.31;98938.31;2106235;83;20611;-80
2022/03/31 07:36:07;;;;;;;;;;;;;;;0.47;84.96;98933.53;2104739;83;20129;-80
2022/03/31 07:39:08;;;;;;;;;;;;;;;0.55;85.04;98929.78;2109963;83;20137;-81
2022/03/31 07:42:09;;;;;;;;;;;;;;;0.63;84.58;98927.34;2107115;83;20207;-80
2022/03/31 07:45:11;;;;;;;;;;;;;;;0.65;84.29;98945.84;2112024;83;20137;-82
2022/03/31 07:48:15;;;;;;;;;;;;;;;0.69;84.19;98940.34;2110257;83;20272;-80
2022/03/31 07:51:16;;;;;;;;;;;;;;;0.70;83.98;98945.91;2108435;83;20172;-80
2022/03/31 07:54:16;;;;;;;;;;;;;;;0.70;83.78;98955.05;2108416;83;20164;-80
2022/03/31 07:57:19;;;;;;;;;;;;;;;0.71;83.89;98960.15;2108142;83;20120;-81
2022/03/31 08:00:20;;;;;;;;;;;;;;;0.76;84.12;98957.98;2109523;83;20140;-79
2022/03/31 08:03:24;;;;;;;;;;;;;;;0.78;83.59;98952.60;2110860;83;20147;-80
2022/03/31 08:06:25;;;;;;;;;;;;;;;0.78;83.13;98962.56;2108177;83;20156;-81
2022/03/31 08:09:26;;;;;;;;;;;;;;;0.81;83.39;98965.39;2115194;83;20461;-81
2022/03/31 08:12:27;;;;;;;;;;;;;;;0.84;83.31;98965.94;2113233;83;20174;-81
2022/03/31 08:15:29;;;;;;;;;;;;;;;0.84;83.32;98960.72;2106756;83;20167;-81
2022/03/31 08:18:31;;;;;;;;;;;;;;;0.95;83.70;98961.10;2111552;83;20142;-81
2022/03/31 08:21:32;;;;;;;;;;;;;;;1.00;83.23;98960.70;2108547;83;20176;-82
2022/03/31 08:24:34;;;;;;;;;;;;;;;1.03;83.14;98963.05;2115804;83;20313;-80
2022/03/31 08:27:35;;;;;;;;;;;;;;;1.06;82.92;98970.13;2109242;83;20164;-82
2022/03/31 08:30:36;;;;;;;;;;;;;;;1.06;82.92;98971.44;2111730;83;20119;-81
2022/03/31 08:33:38;;;;;;;;;;;;;;;1.08;82.84;98967.40;2111374;83;20453;-82
2022/03/31 08:36:39;;;;;;;;;;;;;;;1.12;82.99;98977.43;2107151;83;20176;-82
2022/03/31 08:39:40;;;;;;;;;;;;;;;1.14;82.71;98973.88;2107709;83;20137;-80
2022/03/31 08:42:42;;;;;;;;;;;;;;;1.16;82.63;98980.63;2111204;83;21201;-84
2022/03/31 08:45:44;;;;;;;;;;;;;;;1.14;82.59;98980.41;2114703;83;20301;-82
2022/03/31 08:48:44;;;;;;;;;;;;;;;1.14;82.65;98969.47;2108080;83;20147;-81
2022/03/31 08:51:46;;;;;;;;;;;;;;;1.17;82.73;98963.15;2110938;83;20168;-82
2022/03/31 08:54:48;;;;;;;;;;;;;;;1.22;82.47;98981.88;2111782;83;20121;-82
2022/03/31 08:57:51;;;;;;;;;;;;;;;1.23;82.33;98965.22;2111417;83;20164;-83
2022/03/31 09:00:53;;;;;;;;;;;;;;;1.25;82.37;98957.59;2112190;83;20325;-82
2022/03/31 09:03:53;;;;;;;;;;;;;;;1.30;82.26;98965.86;2107757;83;20150;-82
2022/03/31 09:07:08;;;;;;;;;;;;;;;1.35;82.23;98968.05;2113302;83;20178;-84
2022/03/31 09:10:09;;;;;;;;;;;;;;;1.39;82.16;98956.86;2108439;83;20138;-83
2022/03/31 09:13:25;;;;;;;;;;;;;;;1.41;82.07;98957.06;2110691;83;20143;-82
2022/03/31 09:16:33;;;;;;;;;;;;;;;1.47;82.28;98959.62;2117629;83;20142;-81
2022/03/31 09:19:34;;;;;;;;;;;;;;;1.54;81.75;98968.55;2112610;83;20162;-83
2022/03/31 09:22:48;;;;;;;;;;;;;;;1.58;81.78;98979.09;2114693;83;20160;-81
2022/03/31 09:25:51;;;;;;;;;;;;;;;1.61;81.75;98986.66;2119391;83;20141;-83
2022/03/31 09:28:53;;;;;;;;;;;;;;;1.63;81.89;98980.78;2085696;83;20495;-82
2022/03/31 09:32:11;;;;;;;;;;;;;;;1.67;82.00;98986.11;2110382;83;20148;-81
2022/03/31 09:35:16;;;;;;;;;;;;;;;1.66;81.64;98974.46;2124535;82;20134;-83
2022/03/31 09:38:16;;;;;;;;;;;;;;;1.66;81.68;98972.70;2127891;82;20452;-81
2022/03/31 09:41:21;;;;;;;;;;;;;;;1.68;81.26;98969.44;2115632;83;20157;-83
2022/03/31 09:44:23;;;;;;;;;;;;;;;1.71;81.62;98971.78;2087604;83;20172;-81
2022/03/31 09:47:26;;;;;;;;;;;;;;;1.79;81.54;98973.70;2095224;83;20471;-80
2022/03/31 09:50:32;;;;;;;;;;;;;;;1.85;81.25;98972.33;2104192;83;20205;-84
2022/03/31 09:53:33;;;;;;;;;;;;;;;1.91;81.23;98959.99;2100378;83;20472;-81
2022/03/31 09:56:35;;;;;;;;;;;;;;;1.98;81.01;98960.61;2106417;83;20172;-81
2022/03/31 09:59:38;;;;;;;;;;;;;;;2.06;80.96;98954.69;2099865;83;20146;-81
2022/03/31 10:02:40;;;;;;;;;;;;;;;2.07;80.32;98945.86;2103581;83;20125;-82
2022/03/31 10:05:42;;;;;;;;;;;;;;;2.10;80.47;98950.80;2102741;83;20166;-83
2022/03/31 10:08:44;;;;;;;;;;;;;;;2.20;80.55;98952.93;2104456;83;20141;-82
2022/03/31 10:11:48;;;;;;;;;;;;;;;2.24;80.16;98949.05;2101915;83;20167;-84
2022/03/31 10:15:05;;;;;;;;;;;;;;;2.31;79.98;98953.70;2141303;82;20122;-79
2022/03/31 10:18:06;;;;;;;;;;;;;;;2.30;79.66;98955.50;2152691;82;20145;-81
2022/03/31 10:21:07;;;;;;;;;;;;;;;2.36;80.16;98959.34;2150489;82;20149;-79
2022/03/31 10:27:30;;;;;;;;;;;;;;;2.38;79.72;98963.97;2153103;82;20205;-78
2022/03/31 10:30:31;;;;;;;;;;;;;;;2.38;79.70;98957.42;2152217;81;20158;-79
2022/03/31 10:33:38;;;;;;;;;;;;;;;2.34;79.20;98952.14;2154179;81;20120;-81
2022/03/31 10:36:47;;;;;;;;;;;;;;;2.36;79.50;98948.87;2151524;82;20299;-78
2022/03/31 10:39:55;;;;;;;;;;;;;;;2.39;79.34;98940.73;2154667;82;20170;-80
2022/03/31 10:42:56;;;;;;;;;;;;;;;2.40;79.02;98937.16;2122052;83;20460;-80
2022/03/31 10:46:00;;;;;;;;;;;;;;;2.37;78.91;98933.53;2122614;83;20132;-82
2022/03/31 10:49:02;;;;;;;;;;;;;;;2.39;79.40;98918.02;2129428;83;20158;-82
2022/03/31 10:52:16;;;;;;;;;;;;;;;2.41;79.35;98919.98;2150540;82;20624;-83
2022/03/31 10:55:19;;;;;;;;;;;;;;;2.49;79.13;98925.83;2129168;83;20158;-82
2022/03/31 10:58:25;;;;;;;;;;;;;;;2.44;78.96;98926.73;2128894;82;20134;-82
2022/03/31 11:01:29;;;;;;;;;;;;;;;2.45;78.85;98910.08;2126327;83;20138;-83
2022/03/31 11:04:30;;;;;;;;;;;;;;;2.45;79.10;98911.38;2126464;83;20245;-83
2022/03/31 11:07:31;;;;;;;;;;;;;;;2.54;79.64;98909.20;2130268;83;20134;-80
2022/03/31 11:10:42;;;;;;;;;;;;;;;2.56;78.58;98898.10;2128607;82;20128;-80
2022/03/31 11:13:45;;;;;;;;;;;;;;;2.51;78.51;98905.56;2124150;82;20133;-79
2022/03/31 11:16:46;;;;;;;;;;;;;;;2.53;78.65;98907.53;2098666;83;20157;-79
2022/03/31 11:19:47;;;;;;;;;;;;;;;2.59;78.70;98917.45;2115820;83;20174;-81
2022/03/31 11:22:54;;;;;;;;;;;;;;;2.59;78.38;98904.36;2115275;83;20125;-80
2022/03/31 11:25:55;;;;;;;;;;;;;;;2.57;78.31;98901.55;2101663;83;20169;-81
2022/03/31 11:28:59;;;;;;;;;;;;;;;2.59;78.25;98914.83;2121800;83;20141;-80
2022/03/31 11:32:00;;;;;;;;;;;;;;;2.57;78.26;98895.81;2137348;81;20456;-79
2022/03/31 11:35:02;;;;;;;;;;;;;;;2.61;78.62;98894.53;2139428;81;20135;-81
2022/03/31 11:38:06;;;;;;;;;;;;;;;2.67;78.25;98887.89;2134454;81;20138;-80
2022/03/31 11:41:07;;;;;;;;;;;;;;;2.71;78.40;98885.34;2085940;83;20476;-81
2022/03/31 11:44:08;;;;;;;;;;;;;;;2.76;77.71;98892.73;2095790;84;20163;-82
2022/03/31 11:47:18;;;;;;;;;;;;;;;2.72;77.11;98886.97;2091019;84;20145;-80
2022/03/31 11:50:20;;;;;;;;;;;;;;;2.70;77.71;98898.08;2091612;84;20282;-80
2022/03/31 11:53:27;;;;;;;;;;;;;;;2.77;78.20;98899.16;2089826;84;20124;-79
2022/03/31 11:56:28;;;;;;;;;;;;;;;2.78;77.87;98907.83;2091872;84;20145;-80
2022/03/31 11:59:29;;;;;;;;;;;;;;;2.79;77.86;98903.77;2091915;84;20143;-82
2022/03/31 12:02:30;;;;;;;;;;;;;;;2.78;77.45;98903.90;2090564;84;20137;-81
2022/03/31 12:05:31;;;;;;;;;;;;;;;2.78;77.38;98898.17;2092673;84;20158;-80
2022/03/31 12:08:33;;;;;;;;;;;;;;;2.76;77.30;98898.83;2092840;84;20145;-82
2022/03/31 12:11:34;;;;;;;;;;;;;;;2.77;77.76;98899.64;2086474;84;20195;-82
2022/03/31 12:14:37;;;;;;;;;;;;;;;2.78;77.29;98905.21;2094213;83;20165;-80
2022/03/31 12:17:39;;;;;;;;;;;;;;;2.73;77.30;98901.70;2097358;84;20503;-80
2022/03/31 12:20:40;;;;;;;;;;;;;;;2.68;76.94;98899.55;2101275;83;20181;-79
2022/03/31 12:23:43;;;;;;;;;;;;;;;2.64;77.10;98900.80;2101233;83;20121;-81
2022/03/31 12:26:56;;;;;;;;;;;;;;;2.61;77.37;98899.78;2101553;84;20440;-80
2022/03/31 12:30:00;;;;;;;;;;;;;;;2.60;77.66;98891.59;2100917;84;20255;-82
2022/03/31 12:33:01;;;;;;;;;;;;;;;2.62;77.70;98894.08;2100878;83;20139;-82
2022/03/31 12:36:06;;;;;;;;;;;;;;;2.62;77.67;98896.20;2101012;83;20104;-82
2022/03/31 12:39:08;;;;;;;;;;;;;;;2.61;77.53;98880.13;2100227;84;20170;-81
2022/03/31 12:42:10;;;;;;;;;;;;;;;2.60;77.60;98887.66;2100944;83;20153;-79
2022/03/31 12:45:13;;;;;;;;;;;;;;;2.60;77.58;98884.22;2103438;84;20151;-81
2022/03/31 12:48:14;;;;;;;;;;;;;;;2.60;77.70;98886.35;2102802;83;20136;-79
2022/03/31 12:51:15;;;;;;;;;;;;;;;2.60;77.92;98887.66;2101391;83;20189;-81
2022/03/31 12:54:28;;;;;;;;;;;;;;;2.59;77.54;98879.94;2103955;84;20215;-80
2022/03/31 12:57:29;;;;;;;;;;;;;;;2.58;77.75;98878.30;2096836;83;20147;-80
2022/03/31 13:00:35;;;;;;;;;;;;;;;2.59;77.99;98872.93;2101817;84;20147;-81
2022/03/31 13:03:34;;;;;;;;;;;;;;;2.58;77.76;98872.57;2104000;83;20134;-80
2022/03/31 13:06:39;;;;;;;;;;;;;;;2.58;77.68;98864.71;2099469;84;20131;-82
2022/03/31 13:09:41;;;;;;;;;;;;;;;2.59;77.59;98855.91;2099914;84;20166;-81
2022/03/31 13:12:42;;;;;;;;;;;;;;;2.61;77.79;98857.05;2105640;83;20153;-80
2022/03/31 13:15:43;;;;;;;;;;;;;;;2.63;77.71;98861.17;2112069;83;20168;-79
2022/03/31 13:18:44;;;;;;;;;;;;;;;2.65;77.60;98857.94;2110347;83;20139;-80
2022/03/31 13:21:45;;;;;;;;;;;;;;;2.68;77.61;98861.56;2106218;83;20146;-79
2022/03/31 13:24:48;;;;;;;;;;;;;;;2.70;77.51;98850.92;2107840;83;20174;-80
2022/03/31 13:27:49;;;;;;;;;;;;;;;2.75;77.62;98854.42;2109148;83;20145;-81
2022/03/31 13:30:50;;;;;;;;;;;;;;;2.79;77.69;98845.28;2108569;83;20157;-80
2022/03/31 13:33:51;;;;;;;;;;;;;;;2.83;77.70;98850.58;2110006;83;20178;-81
2022/03/31 13:36:52;;;;;;;;;;;;;;;2.84;77.57;98856.97;2129114;82;20119;-83
2022/03/31 13:39:53;;;;;;;;;;;;;;;2.89;77.36;98847.36;2130106;82;20130;-82
2022/03/31 13:42:54;;;;;;;;;;;;;;;2.89;77.19;98846.88;2125128;82;20251;-82
2022/03/31 13:45:55;;;;;;;;;;;;;;;2.89;77.00;98843.44;2128069;82;20499;-82
2022/03/31 13:48:56;;;;;;;;;;;;;;;2.88;77.13;98835.25;2130714;82;20111;-81
2022/03/31 13:51:57;;;;;;;;;;;;;;;2.90;77.02;98831.97;2129091;82;20178;-80
2022/03/31 13:54:58;;;;;;;;;;;;;;;2.91;76.81;98830.52;2129806;82;20255;-80
2022/03/31 14:01:19;;;;;;;;;;;;;;;2.91;76.45;98827.91;2125714;82;20148;-81
2022/03/31 14:04:22;;;;;;;;;;;;;;;2.90;76.73;98829.34;2126674;82;20504;-81
2022/03/31 14:07:23;;;;;;;;;;;;;;;2.90;76.60;98821.03;2128360;82;20156;-79
2022/03/31 14:10:24;;;;;;;;;;;;;;;2.90;76.71;98822.80;2129957;82;20137;-82
2022/03/31 14:13:25;;;;;;;;;;;;;;;2.91;77.05;98823.16;2129276;82;20158;-83
2022/03/31 14:16:28;;;;;;;;;;;;;;;2.94;76.82;98816.80;2132638;82;20118;-85
2022/03/31 14:19:33;;;;;;;;;;;;;;;2.93;76.60;98808.12;2134163;82;20192;-80
2022/03/31 14:22:34;;;;;;;;;;;;;;;2.96;76.85;98821.38;2128815;82;20134;-81
2022/03/31 14:25:36;;;;;;;;;;;;;;;2.95;76.61;98806.15;2130615;82;20169;-83
2022/03/31 14:28:39;;;;;;;;;;;;;;;2.96;76.66;98815.67;2129039;82;20848;-83
2022/03/31 14:31:42;;;;;;;;;;;;;;;2.98;76.84;98807.16;2132962;82;20145;-81
2022/03/31 14:34:43;;;;;;;;;;;;;;;2.99;76.50;98799.66;2129877;82;20702;-81
2022/03/31 14:37:44;;;;;;;;;;;;;;;3.00;76.61;98807.02;2126360;82;20154;-80
2022/03/31 14:40:46;;;;;;;;;;;;;;;2.98;76.35;98809.77;2126615;82;20136;-82
2022/03/31 14:43:50;;;;;;;;;;;;;;;2.98;76.34;98801.09;2126722;82;20132;-78
2022/03/31 14:46:55;;;;;;;;;;;;;;;2.97;76.30;98798.97;2127932;82;20144;-79
2022/03/31 14:49:57;;;;;;;;;;;;;;;2.96;76.16;98793.41;2130586;82;20431;-82
2022/03/31 14:52:58;;;;;;;;;;;;;;;2.95;76.04;98793.05;2113472;82;20469;-81
2022/03/31 14:56:00;;;;;;;;;;;;;;;2.96;76.10;98796.48;2126005;82;20158;-83
2022/03/31 14:59:01;;;;;;;;;;;;;;;2.96;76.26;98776.83;2127213;82;20181;-80
2022/03/31 15:02:02;;;;;;;;;;;;;;;2.96;76.30;98777.68;2129747;82;20142;-79
2022/03/31 15:05:04;;;;;;;;;;;;;;;2.96;76.30;98778.98;2128638;82;20540;-79
2022/03/31 15:08:05;;;;;;;;;;;;;;;3.01;76.22;98773.28;2128148;82;20445;-81
2022/03/31 15:14:32;;;;;;;;;;;;;;;3.04;76.00;98771.66;2126901;82;20191;-81
2022/03/31 15:17:34;;;;;;;;;;;;;;;3.04;76.18;98767.27;2121449;83;20176;-86
2022/03/31 15:20:35;;;;;;;;;;;;;;;3.06;76.21;98761.86;2120822;83;20122;-80
2022/03/31 15:23:38;;;;;;;;;;;;;;;3.06;76.25;98760.05;2120889;83;20475;-81
2022/03/31 15:26:39;;;;;;;;;;;;;;;3.07;76.27;98758.25;2121894;83;20163;-84
2022/03/31 15:29:40;;;;;;;;;;;;;;;3.08;76.10;98756.80;2122889;83;20142;-82
2022/03/31 15:32:42;;;;;;;;;;;;;;;3.09;75.97;98756.31;2118460;83;20140;-81
2022/03/31 15:35:43;;;;;;;;;;;;;;;3.10;76.09;98750.94;2121947;83;20488;-83
2022/03/31 15:38:44;;;;;;;;;;;;;;;3.11;75.98;98743.89;2118115;83;20162;-82
2022/03/31 15:41:45;;;;;;;;;;;;;;;3.12;76.02;98741.09;2121645;83;20159;-83
2022/03/31 15:44:47;;;;;;;;;;;;;;;3.14;76.00;98750.95;2123102;83;20516;-86
2022/03/31 15:47:48;;;;;;;;;;;;;;;3.14;75.82;98749.64;2119735;83;20168;-83
2022/03/31 15:50:49;;;;;;;;;;;;;;;3.16;76.03;98751.30;2124337;83;20128;-80
2022/03/31 15:53:50;;;;;;;;;;;;;;;3.16;75.84;98748.69;2125085;83;20156;-82
2022/03/31 15:56:52;;;;;;;;;;;;;;;3.16;75.78;98755.23;2120406;83;20158;-82
2022/03/31 15:59:53;;;;;;;;;;;;;;;3.16;75.70;98752.12;2121542;83;20153;-81
2022/03/31 16:02:54;;;;;;;;;;;;;;;3.14;75.76;98748.33;2123980;83;20117;-80
2022/03/31 16:05:56;;;;;;;;;;;;;;;3.17;75.91;98749.01;2117380;83;20142;-81
2022/03/31 16:08:57;;;;;;;;;;;;;;;3.16;75.84;98746.88;2117172;83;20125;-78
2022/03/31 16:11:59;;;;;;;;;;;;;;;3.17;75.91;98755.56;2119999;83;20586;-79
2022/03/31 16:15:02;;;;;;;;;;;;;;;3.21;75.88;98755.58;2124127;83;20500;-83